Darco, Texas
Current Conditions -  °F | °C
As of 6:55 AM on Wednesday 26 Nov 2014 (Local Time) from KASL Reporting Station
Clear Clear  
Wind Chill: 36°   Ceiling: Unl
Heat Index: 40°   Visibility: 10mi
Dew Point: 35°   Wind: 5mph
Humidity: 82%   Direction: 190°S
Pressure: 30.12"   Gusts: NA
Location:  32.4675°N, 94.3321°W
Report Text: KASL 261255Z AUTO 19004KT 10SM CLR 04/02 A3012 RMK AO1 T00430015
Loading
Personal Weather Stations






























Interactive Weather Map New forecast layout! Learn more

10-Day Weather Forecast

Advertisements
Track Severe Weather on mobile